Weather at Lamezia Terme Airport

Public forecast

Using degrees Celsius for public forecast. Weather courtesy of forecast.io.

Current aviation weather report (METAR) for Lamezia Terme Airport

2022/11/26 08:50 (retrieved 30 minutes ago)

LICA 260850Z AUTO 13005KT 9999 -RA OVC058/// 15/13 Q1016

Aviation forecast (TAF) for Lamezia Terme Airport

2022/11/26 06:00 (retrieved 3 hours ago)

TAF LICA 260500Z 2606/2706 07013KT 9999 SCT050 TEMPO 2608/2615 4000 SHRA BECMG 2612/2614 07020G30KT TEMPO 2615/2706 4000 TSRA